Flight Track Log - Related Links

Times and Time Zones

All times are in EDT time to prevent confusion due to time zone crossing. See the CTL15 flight status page for this flight to view local times or setup timezone preferences in your user account.

Time Position Orientation Groundspeed Altitude Reporting Facility
EDT Latitude Longitude Course Direction KTS MPH feet Rate Location/Type
Tue 07:48:38 PM 39.6494 -84.1431 49° Northeast 162 186 1,900  Level Indianapolis Center
Tue 07:49:39 PM 39.6792 -84.0992 49° Northeast 164 189 2,400 466 Climbing Indianapolis Center
Tue 07:50:34 PM 39.7064 -84.0606 47° Northeast 160 184 2,800 417 Climbing Indianapolis Center
Tue 07:51:34 PM 39.7364 -84.0167 48° Northeast 163 188 3,200 365 Climbing Indianapolis Center
Tue 07:52:29 PM 39.7656 -83.9783 45° Northeast 164 189 3,500 259 Climbing Indianapolis Center
Tue 07:53:30 PM 39.7975 -83.9347 46° Northeast 169 194 3,700 234 Climbing Indianapolis Center
Tue 07:54:37 PM 39.8322 -83.8833 49° Northeast 163 188 4,000 209 Climbing Indianapolis Center
Tue 07:55:25 PM 39.8569 -83.8469 48° Northeast 175 201 4,100  Climbing Indianapolis Center
Tue 07:56:38 PM 39.9006 -83.7917 44° Northeast 177 204 4,000 -52 Descending Indianapolis Center
Tue 07:57:20 PM 39.9247 -83.7603 45° Northeast 173 199 4,000 524 Level Indianapolis Center
Tue 07:58:21 PM 39.9539 -83.7217 45° Northeast 136 157 4,900 738 Climbing Indianapolis Center
Tue 07:59:22 PM 39.9831 -83.6828 46° Northeast 145 167 5,500 626 Climbing Indianapolis Center
Tue 08:00:16 PM 40.0053 -83.6511 48° Northeast 144 166 6,100 694 Climbing Indianapolis Center
Tue 08:01:23 PM 40.0392 -83.6075 45° Northeast 144 166 6,900 358 Climbing Indianapolis Center
Tue 08:02:30 PM 40.0728 -83.5667 43° Northeast 159 183 6,900  Level Indianapolis Center
Tue 08:03:31 PM 40.1089 -83.5208 44° Northeast 176 203 6,900  Level Indianapolis Center
Tue 08:04:37 PM 40.1472 -83.4725 44° Northeast 177 204 6,900  Level Indianapolis Center
Tue 08:05:41 PM 40.1875 -83.4264 41° Northeast 188 216 6,900  Level Indianapolis Center
Tue 08:06:45 PM 40.2236 -83.3814 44° Northeast 171 197 6,900 49 Level Indianapolis Center
Tue 08:07:44 PM 40.2494 -83.3450 47° Northeast 172 198 7,000 50 Climbing Indianapolis Center
Tue 08:08:45 PM 40.2892 -83.2925 45° Northeast 173 199 7,000  Level Indianapolis Center
Tue 08:09:46 PM 40.3244 -83.2481 44° Northeast 173 199 7,000  Level Indianapolis Center
Tue 08:10:48 PM 40.3589 -83.2028 45° Northeast 173 199 7,000 -58 Level Indianapolis Center
Tue 08:11:30 PM 40.3867 -83.1722 40° Northeast 172 198 6,900 -49 Descending Indianapolis Center
Tue 08:12:50 PM 40.4311 -83.1142 45° Northeast 176 203 6,900  Level Indianapolis Center
Tue 08:13:52 PM 40.4686 -83.0733 40° Northeast 175 201 6,900  Level Indianapolis Center
Tue 08:14:53 PM 40.5100 -83.0256 41° Northeast 174 200 6,900  Level Indianapolis Center
Tue 08:15:54 PM 40.5411 -82.9875 43° Northeast 174 200 6,900  Level Indianapolis Center
Tue 08:16:56 PM 40.5775 -82.9458 41° Northeast 173 199 6,900  Level Indianapolis Center
Tue 08:17:57 PM 40.6133 -82.8989 45° Northeast 176 203 6,900  Level Indianapolis Center
Tue 08:18:59 PM 40.6544 -82.8472 44° Northeast 175 201 6,900  Level Indianapolis Center
Tue 08:20:00 PM 40.6903 -82.8019 44° Northeast 176 203 6,900  Level Indianapolis Center
Tue 08:21:01 PM 40.7275 -82.7608 40° Northeast 174 200 6,900 49 Level Indianapolis Center
Tue 08:22:03 PM 40.7669 -82.7161 41° Northeast 177 204 7,000 -293 Climbing Indianapolis Center
Tue 08:23:04 PM 40.8064 -82.6725 40° Northeast 182 209 6,300 -634 Descending Indianapolis Center
Tue 08:24:06 PM 40.8467 -82.6236 43° Northeast 189 217 5,700 -488 Descending Indianapolis Center
Tue 08:25:07 PM 40.8847 -82.5722 46° Northeast 192 221 5,300 -526 Descending Indianapolis Center
Tue 08:26:00 PM 40.9178 -82.5258 47° Northeast 192 221 4,700 -722 Descending Cleveland Center
Tue 08:26:55 PM 40.9539 -82.4803 44° Northeast 197 227 4,000 -678 Descending Cleveland Center
Tue 08:27:55 PM 40.9925 -82.4261 47° Northeast 197 227 3,400 -545 Descending Cleveland Center
Tue 08:28:56 PM 41.0308 -82.3750 45° Northeast 198 228 2,900 -261 Descending Cleveland Center
Tue 08:29:50 PM 41.0606 -82.3317 48° Northeast 175 201 2,900  Level Cleveland Center
Tue 08:30:51 PM 41.0906 -82.2775 54° Northeast 176 203 2,900  Level Cleveland Center
Tue 08:31:52 PM 41.1039 -82.2172 74° East 186 214 2,900  Level Cleveland Center
Tue 08:32:53 PM 41.1194 -82.1542 72° East 181 208 2,900  Level Cleveland Center
Tue 08:34:05 PM 41.1414 -82.0747 70° East 182 209 2,900 -47 Level Cleveland Center
Tue 08:35:00 PM 41.1506 -82.0142 79° East 181 208 2,800  Descending Cleveland Center
Tue 08:35:54 PM 41.1658 -81.9567 71° East 180 207 2,900 52 Climbing Cleveland Center
Tue 08:36:55 PM 41.1811 -81.8964 71° East 181 208 2,900 -45 Level Cleveland Center
Tue 08:38:08 PM 41.1986 -81.8250 72° East 176 203 2,800  Descending Cleveland Center
Tue 08:39:08 PM 41.2325 -81.7675 52° Northeast 173 199 2,900 52 Climbing Cleveland Center
Tue 08:40:03 PM 41.2622 -81.7267 46° Northeast 174 200 2,900  Level Cleveland Center
Tue 08:41:03 PM 41.2961 -81.6775 47° Northeast 175 201 2,900 -50 Level Cleveland Center
Tue 08:42:04 PM 41.3278 -81.6339 46° Northeast 173 199 2,800 -141 Descending Cleveland Center
Tue 08:43:11 PM 41.3758 -81.6153 16° North 176 203 2,600 -347 Descending Cleveland Center
Tue 08:44:05 PM 41.4217 -81.6217 354° North 182 209 2,100 -496 Descending Cleveland Center
Tue 08:45:12 PM 41.4736 -81.6361 348° North 165 190 1,600 -493 Descending Cleveland Center
Tue 08:46:19 PM 41.5150 -81.6564 340° North 143 165 1,000 -537 Descending Cleveland Center
Tue 08:48:00 PM 41.5175 -81.6833 230° Southwest  Level Estimated

Login

Don't have an account? Register now (free) for customized features, flight alerts, and more!